sensor_id;sensor_type;location;lat;lon;timestamp;temperature;humidity
16838;DHT22;19510;54.486;9.046;2022-09-17T07:35:59;13.40;99.90
16838;DHT22;19510;54.486;9.046;2022-09-17T07:38:27;13.40;99.90
16838;DHT22;19510;54.486;9.046;2022-09-17T07:40:54;13.30;99.90
16838;DHT22;19510;54.486;9.046;2022-09-17T07:43:20;13.30;99.90
16838;DHT22;19510;54.486;9.046;2022-09-17T07:45:48;13.20;99.90
16838;DHT22;19510;54.486;9.046;2022-09-17T07:48:16;13.20;99.90
16838;DHT22;19510;54.486;9.046;2022-09-17T07:50:42;13.30;99.90
16838;DHT22;19510;54.486;9.046;2022-09-17T07:53:08;13.30;99.90
16838;DHT22;19510;54.486;9.046;2022-09-17T07:55:36;13.30;99.90
16838;DHT22;19510;54.486;9.046;2022-09-17T07:58:02;13.00;99.90
16838;DHT22;19510;54.486;9.046;2022-09-17T08:00:28;12.70;99.90
16838;DHT22;19510;54.486;9.046;2022-09-17T08:02:54;12.70;99.90
16838;DHT22;19510;54.486;9.046;2022-09-17T08:05:21;12.70;99.90
16838;DHT22;19510;54.486;9.046;2022-09-17T08:07:51;12.70;99.90
16838;DHT22;19510;54.486;9.046;2022-09-17T08:10:17;12.80;99.90
16838;DHT22;19510;54.486;9.046;2022-09-17T08:12:56;12.70;99.90
16838;DHT22;19510;54.486;9.046;2022-09-17T08:15:22;12.80;99.90
16838;DHT22;19510;54.486;9.046;2022-09-17T08:17:49;12.80;99.90
16838;DHT22;19510;54.486;9.046;2022-09-17T08:20:16;12.90;99.90
16838;DHT22;19510;54.486;9.046;2022-09-17T08:22:42;13.00;99.90
16838;DHT22;19510;54.486;9.046;2022-09-17T08:25:08;13.10;99.90
16838;DHT22;19510;54.486;9.046;2022-09-17T08:27:37;13.10;99.90
16838;DHT22;19510;54.486;9.046;2022-09-17T08:30:07;13.20;99.90
16838;DHT22;19510;54.486;9.046;2022-09-17T08:32:37;13.30;99.90
16838;DHT22;19510;54.486;9.046;2022-09-17T08:35:03;13.30;99.90
16838;DHT22;19510;54.486;9.046;2022-09-17T08:37:29;13.40;99.90
16838;DHT22;19510;54.486;9.046;2022-09-17T08:39:55;13.40;99.90
16838;DHT22;19510;54.486;9.046;2022-09-17T08:44:53;13.30;99.90
16838;DHT22;19510;54.486;9.046;2022-09-17T08:47:53;13.30;99.90
16838;DHT22;19510;54.486;9.046;2022-09-17T08:50:30;13.30;99.90
16838;DHT22;19510;54.486;9.046;2022-09-17T08:56:12;13.40;99.90
16838;DHT22;19510;54.486;9.046;2022-09-17T09:01:30;13.50;99.90
16838;DHT22;19510;54.486;9.046;2022-09-17T09:06:53;13.70;99.90
16838;DHT22;19510;54.486;9.046;2022-09-17T09:09:24;13.70;99.90
16838;DHT22;19510;54.486;9.046;2022-09-17T09:12:03;13.80;99.90
16838;DHT22;19510;54.486;9.046;2022-09-17T09:14:55;13.80;99.90
16838;DHT22;19510;54.486;9.046;2022-09-17T09:17:26;13.80;99.90
16838;DHT22;19510;54.486;9.046;2022-09-17T09:19:54;13.80;99.90
16838;DHT22;19510;54.486;9.046;2022-09-17T09:22:49;13.80;99.90
16838;DHT22;19510;54.486;9.046;2022-09-17T09:25:19;13.80;99.90
16838;DHT22;19510;54.486;9.046;2022-09-17T09:30:19;13.80;99.90
16838;DHT22;19510;54.486;9.046;2022-09-17T09:33:15;13.90;99.90
16838;DHT22;19510;54.486;9.046;2022-09-17T09:35:43;13.90;99.90
16838;DHT22;19510;54.486;9.046;2022-09-17T09:40:56;13.80;99.90
16838;DHT22;19510;54.486;9.046;2022-09-17T09:51:37;13.70;99.90
16838;DHT22;19510;54.486;9.046;2022-09-17T09:56:57;13.80;99.90
16838;DHT22;19510;54.486;9.046;2022-09-17T09:59:25;13.80;99.90
16838;DHT22;19510;54.486;9.046;2022-09-17T10:01:51;13.90;99.90
16838;DHT22;19510;54.486;9.046;2022-09-17T10:04:18;13.80;99.90
16838;DHT22;19510;54.486;9.046;2022-09-17T10:06:45;13.80;99.90
16838;DHT22;19510;54.486;9.046;2022-09-17T10:09:12;14.00;99.90
16838;DHT22;19510;54.486;9.046;2022-09-17T10:11:39;14.10;99.90
16838;DHT22;19510;54.486;9.046;2022-09-17T10:14:24;14.10;99.90
16838;DHT22;19510;54.486;9.046;2022-09-17T10:20:11;13.80;99.90
16838;DHT22;19510;54.486;9.046;2022-09-17T10:22:51;13.70;99.90
16838;DHT22;19510;54.486;9.046;2022-09-17T10:25:30;13.70;99.90
16838;DHT22;19510;54.486;9.046;2022-09-17T10:27:58;13.50;99.90
16838;DHT22;19510;54.486;9.046;2022-09-17T10:30:24;13.40;99.90
16838;DHT22;19510;54.486;9.046;2022-09-17T10:35:38;13.00;99.90
16838;DHT22;19510;54.486;9.046;2022-09-17T10:38:04;12.80;99.90
16838;DHT22;19510;54.486;9.046;2022-09-17T10:40:31;12.70;99.90
16838;DHT22;19510;54.486;9.046;2022-09-17T10:43:17;12.70;99.90
16838;DHT22;19510;54.486;9.046;2022-09-17T10:45:53;12.70;99.90
16838;DHT22;19510;54.486;9.046;2022-09-17T10:48:21;12.70;99.90
16838;DHT22;19510;54.486;9.046;2022-09-17T10:50:49;12.70;99.90
16838;DHT22;19510;54.486;9.046;2022-09-17T10:53:17;12.70;99.90
16838;DHT22;19510;54.486;9.046;2022-09-17T11:04:24;13.30;99.90
16838;DHT22;19510;54.486;9.046;2022-09-17T11:07:27;13.50;99.90
16838;DHT22;19510;54.486;9.046;2022-09-17T11:23:33;14.50;99.90
16838;DHT22;19510;54.486;9.046;2022-09-17T11:36:54;14.80;99.90
16838;DHT22;19510;54.486;9.046;2022-09-17T11:42:02;14.40;99.90
16838;DHT22;19510;54.486;9.046;2022-09-17T11:45:05;14.40;99.90
16838;DHT22;19510;54.486;9.046;2022-09-17T11:47:43;14.20;99.90
16838;DHT22;19510;54.486;9.046;2022-09-17T11:50:18;14.10;99.90
16838;DHT22;19510;54.486;9.046;2022-09-17T11:52:56;14.10;99.90
16838;DHT22;19510;54.486;9.046;2022-09-17T11:55:32;14.10;99.90
16838;DHT22;19510;54.486;9.046;2022-09-17T11:58:16;14.00;99.90
16838;DHT22;19510;54.486;9.046;2022-09-17T12:00:50;13.90;99.90
16838;DHT22;19510;54.486;9.046;2022-09-17T12:03:32;13.80;99.90
16838;DHT22;19510;54.486;9.046;2022-09-17T12:06:07;13.80;99.90
16838;DHT22;19510;54.486;9.046;2022-09-17T12:08:55;13.80;99.90
16838;DHT22;19510;54.486;9.046;2022-09-17T12:11:31;13.80;99.90
16838;DHT22;19510;54.486;9.046;2022-09-17T12:14:04;13.80;99.90
16838;DHT22;19510;54.486;9.046;2022-09-17T12:16:38;13.80;99.90
16838;DHT22;19510;54.486;9.046;2022-09-17T12:24:40;13.70;99.90
16838;DHT22;19510;54.486;9.046;2022-09-17T12:27:14;13.70;99.90
16838;DHT22;19510;54.486;9.046;2022-09-17T12:30:11;13.80;99.90
16838;DHT22;19510;54.486;9.046;2022-09-17T12:36:07;13.70;99.90
16838;DHT22;19510;54.486;9.046;2022-09-17T12:42:16;13.60;99.90
16838;DHT22;19510;54.486;9.046;2022-09-17T12:47:48;13.70;99.90
16838;DHT22;19510;54.486;9.046;2022-09-17T12:55:46;13.80;99.90
16838;DHT22;19510;54.486;9.046;2022-09-17T13:01:07;13.90;99.90
16838;DHT22;19510;54.486;9.046;2022-09-17T13:03:44;13.90;99.90
16838;DHT22;19510;54.486;9.046;2022-09-17T13:12:25;13.90;99.90
16838;DHT22;19510;54.486;9.046;2022-09-17T13:18:05;13.90;99.90
16838;DHT22;19510;54.486;9.046;2022-09-17T13:23:12;13.90;99.90
16838;DHT22;19510;54.486;9.046;2022-09-17T13:25:51;13.90;99.90
16838;DHT22;19510;54.486;9.046;2022-09-17T13:28:19;13.90;99.90
16838;DHT22;19510;54.486;9.046;2022-09-17T13:30:59;13.90;99.90
16838;DHT22;19510;54.486;9.046;2022-09-17T13:33:48;13.90;99.90
16838;DHT22;19510;54.486;9.046;2022-09-17T13:36:51;13.90;99.90
16838;DHT22;19510;54.486;9.046;2022-09-17T13:44:40;13.80;99.90
16838;DHT22;19510;54.486;9.046;2022-09-17T13:47:20;13.70;99.90
16838;DHT22;19510;54.486;9.046;2022-09-17T13:50:05;13.50;99.90
16838;DHT22;19510;54.486;9.046;2022-09-17T13:55:01;13.20;99.90
16838;DHT22;19510;54.486;9.046;2022-09-17T13:57:29;13.10;99.90
16838;DHT22;19510;54.486;9.046;2022-09-17T13:59:59;13.10;99.90
16838;DHT22;19510;54.486;9.046;2022-09-17T14:02:28;13.10;99.90
16838;DHT22;19510;54.486;9.046;2022-09-17T14:05:16;13.10;99.90
16838;DHT22;19510;54.486;9.046;2022-09-17T14:08:08;13.00;99.90
16838;DHT22;19510;54.486;9.046;2022-09-17T14:10:40;13.00;99.90
16838;DHT22;19510;54.486;9.046;2022-09-17T14:13:37;12.90;99.90
16838;DHT22;19510;54.486;9.046;2022-09-17T14:22:24;12.80;99.90
16838;DHT22;19510;54.486;9.046;2022-09-17T14:24:52;12.80;99.90
16838;DHT22;19510;54.486;9.046;2022-09-17T14:35:43;12.90;99.90
16838;DHT22;19510;54.486;9.046;2022-09-17T14:41:06;13.00;99.90
16838;DHT22;19510;54.486;9.046;2022-09-17T14:43:42;13.10;99.90
16838;DHT22;19510;54.486;9.046;2022-09-17T14:48:42;13.40;99.90
16838;DHT22;19510;54.486;9.046;2022-09-17T14:53:47;13.50;99.90
16838;DHT22;19510;54.486;9.046;2022-09-17T14:56:16;13.70;99.90
16838;DHT22;19510;54.486;9.046;2022-09-17T14:58:47;13.80;99.90
16838;DHT22;19510;54.486;9.046;2022-09-17T15:01:25;13.80;99.90
16838;DHT22;19510;54.486;9.046;2022-09-17T15:06:38;14.00;99.90
16838;DHT22;19510;54.486;9.046;2022-09-17T15:09:17;14.00;99.90
16838;DHT22;19510;54.486;9.046;2022-09-17T15:11:46;14.20;99.90
16838;DHT22;19510;54.486;9.046;2022-09-17T15:14:17;14.30;99.90
16838;DHT22;19510;54.486;9.046;2022-09-17T15:16:52;14.30;99.90
16838;DHT22;19510;54.486;9.046;2022-09-17T15:19:26;14.50;99.90
16838;DHT22;19510;54.486;9.046;2022-09-17T15:21:56;14.50;99.90
16838;DHT22;19510;54.486;9.046;2022-09-17T15:24:34;14.50;99.90
16838;DHT22;19510;54.486;9.046;2022-09-17T15:27:08;14.60;99.90
16838;DHT22;19510;54.486;9.046;2022-09-17T15:29:37;14.70;99.90
16838;DHT22;19510;54.486;9.046;2022-09-17T15:32:11;14.80;99.90
16838;DHT22;19510;54.486;9.046;2022-09-17T15:34:36;14.90;99.90
16838;DHT22;19510;54.486;9.046;2022-09-17T15:37:17;14.90;99.90
16838;DHT22;19510;54.486;9.046;2022-09-17T15:39:48;14.90;99.90
16838;DHT22;19510;54.486;9.046;2022-09-17T15:42:29;15.00;99.90
16838;DHT22;19510;54.486;9.046;2022-09-17T15:45:21;15.00;99.90
16838;DHT22;19510;54.486;9.046;2022-09-17T15:47:55;15.00;99.90
16838;DHT22;19510;54.486;9.046;2022-09-17T15:50:29;15.00;99.90
16838;DHT22;19510;54.486;9.046;2022-09-17T15:53:12;14.90;99.90
16838;DHT22;19510;54.486;9.046;2022-09-17T15:55:45;14.90;99.90
16838;DHT22;19510;54.486;9.046;2022-09-17T15:58:24;14.90;99.90
16838;DHT22;19510;54.486;9.046;2022-09-17T16:11:13;14.70;99.90
16838;DHT22;19510;54.486;9.046;2022-09-17T16:13:39;14.80;99.90
16838;DHT22;19510;54.486;9.046;2022-09-17T16:16:05;14.80;99.90
16838;DHT22;19510;54.486;9.046;2022-09-17T16:18:31;14.70;99.90
16838;DHT22;19510;54.486;9.046;2022-09-17T16:20:57;14.70;99.90
16838;DHT22;19510;54.486;9.046;2022-09-17T16:23:22;14.70;99.90
16838;DHT22;19510;54.486;9.046;2022-09-17T16:25:48;14.70;99.90
16838;DHT22;19510;54.486;9.046;2022-09-17T16:28:18;14.60;99.90
16838;DHT22;19510;54.486;9.046;2022-09-17T16:30:47;14.50;99.90
16838;DHT22;19510;54.486;9.046;2022-09-17T16:33:16;14.40;99.90
16838;DHT22;19510;54.486;9.046;2022-09-17T16:35:42;14.40;99.90
16838;DHT22;19510;54.486;9.046;2022-09-17T16:38:08;14.30;99.90
16838;DHT22;19510;54.486;9.046;2022-09-17T16:40:42;14.20;99.90
16838;DHT22;19510;54.486;9.046;2022-09-17T16:43:11;14.10;99.90
16838;DHT22;19510;54.486;9.046;2022-09-17T16:45:36;14.10;99.90
16838;DHT22;19510;54.486;9.046;2022-09-17T16:48:05;14.10;99.90
16838;DHT22;19510;54.486;9.046;2022-09-17T16:50:32;14.10;99.90
16838;DHT22;19510;54.486;9.046;2022-09-17T16:52:58;14.00;99.90
16838;DHT22;19510;54.486;9.046;2022-09-17T16:55:24;14.00;99.90
16838;DHT22;19510;54.486;9.046;2022-09-17T16:57:49;13.90;99.90
16838;DHT22;19510;54.486;9.046;2022-09-17T17:00:18;13.90;99.90
16838;DHT22;19510;54.486;9.046;2022-09-17T17:02:55;13.80;99.90
16838;DHT22;19510;54.486;9.046;2022-09-17T17:05:22;13.80;99.90
16838;DHT22;19510;54.486;9.046;2022-09-17T17:07:49;13.70;99.90
16838;DHT22;19510;54.486;9.046;2022-09-17T17:10:15;13.70;99.90
16838;DHT22;19510;54.486;9.046;2022-09-17T17:12:40;13.70;99.90
16838;DHT22;19510;54.486;9.046;2022-09-17T17:15:07;13.70;99.90
16838;DHT22;19510;54.486;9.046;2022-09-17T17:17:34;13.70;99.90
16838;DHT22;19510;54.486;9.046;2022-09-17T17:20:01;13.70;99.90
16838;DHT22;19510;54.486;9.046;2022-09-17T17:22:30;13.70;99.90
16838;DHT22;19510;54.486;9.046;2022-09-17T17:24:56;13.70;99.90
16838;DHT22;19510;54.486;9.046;2022-09-17T17:27:22;13.70;99.90
16838;DHT22;19510;54.486;9.046;2022-09-17T17:29:47;13.60;99.90
16838;DHT22;19510;54.486;9.046;2022-09-17T17:32:13;13.60;99.90
16838;DHT22;19510;54.486;9.046;2022-09-17T17:34:41;13.60;99.90
16838;DHT22;19510;54.486;9.046;2022-09-17T17:37:06;13.50;99.90
16838;DHT22;19510;54.486;9.046;2022-09-17T17:39:32;13.50;99.90
16838;DHT22;19510;54.486;9.046;2022-09-17T17:41:58;13.50;99.90
16838;DHT22;19510;54.486;9.046;2022-09-17T17:44:23;13.50;99.90
16838;DHT22;19510;54.486;9.046;2022-09-17T17:46:49;13.50;99.90
16838;DHT22;19510;54.486;9.046;2022-09-17T17:49:15;13.50;99.90
16838;DHT22;19510;54.486;9.046;2022-09-17T17:51:41;13.50;99.90
16838;DHT22;19510;54.486;9.046;2022-09-17T17:54:07;13.50;99.90
16838;DHT22;19510;54.486;9.046;2022-09-17T17:56:32;13.50;99.90
16838;DHT22;19510;54.486;9.046;2022-09-17T17:58:58;13.50;99.90
16838;DHT22;19510;54.486;9.046;2022-09-17T18:01:26;13.50;99.90
16838;DHT22;19510;54.486;9.046;2022-09-17T18:03:58;13.40;99.90
16838;DHT22;19510;54.486;9.046;2022-09-17T18:06:28;13.40;99.90
16838;DHT22;19510;54.486;9.046;2022-09-17T18:08:55;13.40;99.90
16838;DHT22;19510;54.486;9.046;2022-09-17T18:11:25;13.40;99.90
16838;DHT22;19510;54.486;9.046;2022-09-17T18:13:59;13.30;99.90
16838;DHT22;19510;54.486;9.046;2022-09-17T18:16:28;13.30;99.90
16838;DHT22;19510;54.486;9.046;2022-09-17T18:18:55;13.30;99.90
16838;DHT22;19510;54.486;9.046;2022-09-17T18:21:23;13.20;99.90
16838;DHT22;19510;54.486;9.046;2022-09-17T18:23:50;13.20;99.90
16838;DHT22;19510;54.486;9.046;2022-09-17T18:26:18;13.20;99.90
16838;DHT22;19510;54.486;9.046;2022-09-17T18:28:44;13.20;99.90
16838;DHT22;19510;54.486;9.046;2022-09-17T18:31:28;13.10;99.90
16838;DHT22;19510;54.486;9.046;2022-09-17T18:34:05;13.10;99.90
16838;DHT22;19510;54.486;9.046;2022-09-17T18:36:33;13.00;99.90
16838;DHT22;19510;54.486;9.046;2022-09-17T18:39:01;13.00;99.90
16838;DHT22;19510;54.486;9.046;2022-09-17T18:41:35;13.00;99.90
16838;DHT22;19510;54.486;9.046;2022-09-17T18:44:06;13.00;99.90
16838;DHT22;19510;54.486;9.046;2022-09-17T18:46:31;12.90;99.90
16838;DHT22;19510;54.486;9.046;2022-09-17T18:48:59;12.90;99.90
16838;DHT22;19510;54.486;9.046;2022-09-17T18:51:27;12.90;99.90
16838;DHT22;19510;54.486;9.046;2022-09-17T18:53:53;12.90;99.90
16838;DHT22;19510;54.486;9.046;2022-09-17T18:56:21;12.90;99.90
16838;DHT22;19510;54.486;9.046;2022-09-17T18:58:49;12.80;99.90
16838;DHT22;19510;54.486;9.046;2022-09-17T19:01:16;12.80;99.90
16838;DHT22;19510;54.486;9.046;2022-09-17T19:03:44;12.80;99.90
16838;DHT22;19510;54.486;9.046;2022-09-17T19:06:11;12.80;99.90
16838;DHT22;19510;54.486;9.046;2022-09-17T19:08:38;12.70;99.90
16838;DHT22;19510;54.486;9.046;2022-09-17T19:11:04;12.80;99.90
16838;DHT22;19510;54.486;9.046;2022-09-17T19:13:36;12.80;99.90
16838;DHT22;19510;54.486;9.046;2022-09-17T19:16:02;12.70;99.90
16838;DHT22;19510;54.486;9.046;2022-09-17T19:18:28;12.60;99.90
16838;DHT22;19510;54.486;9.046;2022-09-17T19:21:02;12.50;99.90
16838;DHT22;19510;54.486;9.046;2022-09-17T19:23:28;12.50;99.90
16838;DHT22;19510;54.486;9.046;2022-09-17T19:25:55;12.40;99.90
16838;DHT22;19510;54.486;9.046;2022-09-17T19:28:21;12.40;99.90
16838;DHT22;19510;54.486;9.046;2022-09-17T19:30:48;12.40;99.90
16838;DHT22;19510;54.486;9.046;2022-09-17T19:33:14;12.30;99.90
16838;DHT22;19510;54.486;9.046;2022-09-17T19:35:39;12.30;99.90
16838;DHT22;19510;54.486;9.046;2022-09-17T19:38:05;12.30;99.90
16838;DHT22;19510;54.486;9.046;2022-09-17T19:40:31;12.30;99.90
16838;DHT22;19510;54.486;9.046;2022-09-17T19:42:57;12.30;99.90
16838;DHT22;19510;54.486;9.046;2022-09-17T19:45:24;12.30;99.90
16838;DHT22;19510;54.486;9.046;2022-09-17T19:47:50;12.30;99.90
16838;DHT22;19510;54.486;9.046;2022-09-17T19:50:16;12.30;99.90
16838;DHT22;19510;54.486;9.046;2022-09-17T19:52:44;12.30;99.90
16838;DHT22;19510;54.486;9.046;2022-09-17T19:55:12;12.20;99.90
16838;DHT22;19510;54.486;9.046;2022-09-17T19:57:39;12.20;99.90
16838;DHT22;19510;54.486;9.046;2022-09-17T20:00:06;12.20;99.90
16838;DHT22;19510;54.486;9.046;2022-09-17T20:02:36;12.10;99.90
16838;DHT22;19510;54.486;9.046;2022-09-17T20:05:01;12.20;99.90
16838;DHT22;19510;54.486;9.046;2022-09-17T20:07:30;12.20;99.90
16838;DHT22;19510;54.486;9.046;2022-09-17T20:09:56;12.20;99.90
16838;DHT22;19510;54.486;9.046;2022-09-17T20:12:21;12.20;99.90
16838;DHT22;19510;54.486;9.046;2022-09-17T20:14:47;12.20;99.90
16838;DHT22;19510;54.486;9.046;2022-09-17T20:17:15;12.10;99.90
16838;DHT22;19510;54.486;9.046;2022-09-17T20:19:41;12.10;99.90
16838;DHT22;19510;54.486;9.046;2022-09-17T20:22:07;12.10;99.90
16838;DHT22;19510;54.486;9.046;2022-09-17T20:24:32;12.00;99.90
16838;DHT22;19510;54.486;9.046;2022-09-17T20:26:58;12.00;99.90
16838;DHT22;19510;54.486;9.046;2022-09-17T20:29:26;12.00;99.90
16838;DHT22;19510;54.486;9.046;2022-09-17T20:31:52;12.00;99.90
16838;DHT22;19510;54.486;9.046;2022-09-17T20:34:17;12.00;99.90
16838;DHT22;19510;54.486;9.046;2022-09-17T20:36:43;11.90;99.90
16838;DHT22;19510;54.486;9.046;2022-09-17T20:39:09;11.90;99.90
16838;DHT22;19510;54.486;9.046;2022-09-17T20:41:38;11.90;99.90
16838;DHT22;19510;54.486;9.046;2022-09-17T20:44:05;11.90;99.90
16838;DHT22;19510;54.486;9.046;2022-09-17T20:46:31;11.90;99.90
16838;DHT22;19510;54.486;9.046;2022-09-17T20:48:59;11.90;99.90
16838;DHT22;19510;54.486;9.046;2022-09-17T20:51:29;11.90;99.90
16838;DHT22;19510;54.486;9.046;2022-09-17T20:53:55;11.90;99.90
16838;DHT22;19510;54.486;9.046;2022-09-17T20:56:27;11.90;99.90
16838;DHT22;19510;54.486;9.046;2022-09-17T20:58:56;11.90;99.90
16838;DHT22;19510;54.486;9.046;2022-09-17T21:01:25;11.90;99.90
16838;DHT22;19510;54.486;9.046;2022-09-17T21:03:57;11.90;99.90
16838;DHT22;19510;54.486;9.046;2022-09-17T21:06:29;11.90;99.90
16838;DHT22;19510;54.486;9.046;2022-09-17T21:08:55;11.90;99.90
16838;DHT22;19510;54.486;9.046;2022-09-17T21:11:24;12.00;99.90
16838;DHT22;19510;54.486;9.046;2022-09-17T21:13:51;12.00;99.90
16838;DHT22;19510;54.486;9.046;2022-09-17T21:16:17;12.00;99.90
16838;DHT22;19510;54.486;9.046;2022-09-17T21:18:43;12.00;99.90
16838;DHT22;19510;54.486;9.046;2022-09-17T21:21:16;12.00;99.90
16838;DHT22;19510;54.486;9.046;2022-09-17T21:23:43;12.10;99.90
16838;DHT22;19510;54.486;9.046;2022-09-17T21:26:11;12.10;99.90
16838;DHT22;19510;54.486;9.046;2022-09-17T21:28:38;12.10;99.90
16838;DHT22;19510;54.486;9.046;2022-09-17T21:31:12;12.10;99.90
16838;DHT22;19510;54.486;9.046;2022-09-17T21:33:39;12.10;99.90
16838;DHT22;19510;54.486;9.046;2022-09-17T21:36:13;12.20;99.90
16838;DHT22;19510;54.486;9.046;2022-09-17T21:38:39;12.20;99.90
16838;DHT22;19510;54.486;9.046;2022-09-17T21:41:11;12.20;99.90
16838;DHT22;19510;54.486;9.046;2022-09-17T21:43:40;12.30;99.90
16838;DHT22;19510;54.486;9.046;2022-09-17T21:46:08;12.30;99.90
16838;DHT22;19510;54.486;9.046;2022-09-17T21:48:50;12.30;99.90
16838;DHT22;19510;54.486;9.046;2022-09-17T21:51:24;12.30;99.90
16838;DHT22;19510;54.486;9.046;2022-09-17T21:53:56;12.30;99.90
16838;DHT22;19510;54.486;9.046;2022-09-17T21:56:22;12.30;99.90
16838;DHT22;19510;54.486;9.046;2022-09-17T21:58:54;12.30;99.90
16838;DHT22;19510;54.486;9.046;2022-09-17T22:01:22;12.40;99.90
16838;DHT22;19510;54.486;9.046;2022-09-17T22:03:48;12.40;99.90
16838;DHT22;19510;54.486;9.046;2022-09-17T22:06:19;12.40;99.90
16838;DHT22;19510;54.486;9.046;2022-09-17T22:08:47;12.40;99.90
16838;DHT22;19510;54.486;9.046;2022-09-17T22:11:22;12.50;99.90
16838;DHT22;19510;54.486;9.046;2022-09-17T22:16:21;12.50;99.90
16838;DHT22;19510;54.486;9.046;2022-09-17T22:18:48;12.50;99.90
16838;DHT22;19510;54.486;9.046;2022-09-17T22:21:19;12.50;99.90
16838;DHT22;19510;54.486;9.046;2022-09-17T22:23:46;12.50;99.90
16838;DHT22;19510;54.486;9.046;2022-09-17T22:26:15;12.50;99.90
16838;DHT22;19510;54.486;9.046;2022-09-17T22:28:43;12.40;99.90
16838;DHT22;19510;54.486;9.046;2022-09-17T22:31:10;12.50;99.90
16838;DHT22;19510;54.486;9.046;2022-09-17T22:33:41;12.50;99.90
16838;DHT22;19510;54.486;9.046;2022-09-17T22:36:12;12.40;99.90
16838;DHT22;19510;54.486;9.046;2022-09-17T22:38:38;12.40;99.90
16838;DHT22;19510;54.486;9.046;2022-09-17T22:41:13;12.40;99.90
16838;DHT22;19510;54.486;9.046;2022-09-17T22:43:39;12.40;99.90
16838;DHT22;19510;54.486;9.046;2022-09-17T22:46:14;12.30;99.90
